Ordes, Spain
Current Conditions -  °F | °C
As of 3:30 AM on Thursday 23 Oct 2014 (Local Time) from LEST Reporting Station
Clear Clear  
Wind Chill: 57°   Ceiling: Unl
Heat Index: 57°   Visibility: 6mi
Dew Point: 52°   Wind: 0mph
Humidity: 82%   Direction: NA
Pressure: 30.33"   Gusts: NA
Location:  43.08°N, 8.41°W
Report Text: LEST 230130Z 00000KT CAVOK 14/11 Q1027 NOSIG
Loading
Personal Weather Stations






























Interactive Weather Map
Tropical Storm Tracking
New forecast layout! Learn more

10-Day Weather Forecast

Advertisements
Track Severe Weather on mobile